sensor_id;sensor_type;location;lat;lon;timestamp;pressure;altitude;pressure_sealevel;temperature;humidity
65880;BME280;52661;51.364;6.054;2022-12-18T00:01:12;102440.25;;;-4.61;100.00
65880;BME280;52661;51.364;6.054;2022-12-18T00:03:38;102442.78;;;-4.71;100.00
65880;BME280;52661;51.364;6.054;2022-12-18T00:06:04;102443.41;;;-4.64;100.00
65880;BME280;52661;51.364;6.054;2022-12-18T00:08:29;102450.88;;;-4.61;100.00
65880;BME280;52661;51.364;6.054;2022-12-18T00:10:54;102440.56;;;-4.57;100.00
65880;BME280;52661;51.364;6.054;2022-12-18T00:13:20;102439.16;;;-4.65;100.00
65880;BME280;52661;51.364;6.054;2022-12-18T00:15:45;102444.66;;;-4.66;100.00
65880;BME280;52661;51.364;6.054;2022-12-18T00:18:10;102446.22;;;-4.70;100.00
65880;BME280;52661;51.364;6.054;2022-12-18T00:20:37;102436.16;;;-4.90;100.00
65880;BME280;52661;51.364;6.054;2022-12-18T00:23:04;102438.66;;;-5.00;100.00
65880;BME280;52661;51.364;6.054;2022-12-18T00:25:29;102428.09;;;-4.78;100.00
65880;BME280;52661;51.364;6.054;2022-12-18T00:27:57;102432.66;;;-4.74;100.00
65880;BME280;52661;51.364;6.054;2022-12-18T00:30:22;102432.72;;;-4.69;100.00
65880;BME280;52661;51.364;6.054;2022-12-18T00:32:47;102427.13;;;-4.72;100.00
65880;BME280;52661;51.364;6.054;2022-12-18T00:35:13;102435.03;;;-4.94;100.00
65880;BME280;52661;51.364;6.054;2022-12-18T00:37:38;102434.94;;;-4.99;100.00
65880;BME280;52661;51.364;6.054;2022-12-18T00:40:04;102426.84;;;-5.09;100.00
65880;BME280;52661;51.364;6.054;2022-12-18T00:42:29;102425.88;;;-5.20;100.00
65880;BME280;52661;51.364;6.054;2022-12-18T00:45:13;102425.25;;;-5.27;100.00
65880;BME280;52661;51.364;6.054;2022-12-18T00:47:39;102429.25;;;-5.24;100.00
65880;BME280;52661;51.364;6.054;2022-12-18T00:50:05;102427.09;;;-5.27;100.00
65880;BME280;52661;51.364;6.054;2022-12-18T00:52:30;102419.16;;;-5.27;100.00
65880;BME280;52661;51.364;6.054;2022-12-18T00:54:56;102428.47;;;-5.25;100.00
65880;BME280;52661;51.364;6.054;2022-12-18T00:57:21;102439.84;;;-5.24;100.00
65880;BME280;52661;51.364;6.054;2022-12-18T00:59:46;102429.09;;;-5.34;100.00
65880;BME280;52661;51.364;6.054;2022-12-18T01:02:12;102421.47;;;-5.31;100.00
65880;BME280;52661;51.364;6.054;2022-12-18T01:04:37;102429.69;;;-5.32;100.00
65880;BME280;52661;51.364;6.054;2022-12-18T01:07:03;102429.25;;;-5.41;100.00
65880;BME280;52661;51.364;6.054;2022-12-18T01:09:28;102418.66;;;-5.24;100.00
65880;BME280;52661;51.364;6.054;2022-12-18T01:11:53;102417.09;;;-5.25;100.00
65880;BME280;52661;51.364;6.054;2022-12-18T01:14:19;102413.53;;;-5.31;100.00
65880;BME280;52661;51.364;6.054;2022-12-18T01:16:44;102412.72;;;-5.31;100.00
65880;BME280;52661;51.364;6.054;2022-12-18T01:19:09;102423.47;;;-5.38;100.00
65880;BME280;52661;51.364;6.054;2022-12-18T01:21:35;102423.53;;;-5.50;100.00
65880;BME280;52661;51.364;6.054;2022-12-18T01:24:00;102426.84;;;-5.42;100.00
65880;BME280;52661;51.364;6.054;2022-12-18T01:26:26;102424.19;;;-5.42;100.00
65880;BME280;52661;51.364;6.054;2022-12-18T01:28:54;102432.22;;;-5.37;100.00
65880;BME280;52661;51.364;6.054;2022-12-18T01:31:25;102431.03;;;-5.30;100.00
65880;BME280;52661;51.364;6.054;2022-12-18T01:33:52;102443.72;;;-5.32;100.00
65880;BME280;52661;51.364;6.054;2022-12-18T01:36:26;102438.72;;;-5.12;100.00
65880;BME280;52661;51.364;6.054;2022-12-18T01:38:52;102428.06;;;-5.00;100.00
65880;BME280;52661;51.364;6.054;2022-12-18T01:41:20;102433.19;;;-4.93;100.00
65880;BME280;52661;51.364;6.054;2022-12-18T01:43:54;102423.22;;;-4.86;100.00
65880;BME280;52661;51.364;6.054;2022-12-18T01:46:21;102419.22;;;-4.89;100.00
65880;BME280;52661;51.364;6.054;2022-12-18T01:48:54;102426.09;;;-4.88;100.00
65880;BME280;52661;51.364;6.054;2022-12-18T01:51:21;102429.63;;;-4.82;100.00
65880;BME280;52661;51.364;6.054;2022-12-18T01:53:48;102419.84;;;-4.99;100.00
65880;BME280;52661;51.364;6.054;2022-12-18T01:56:16;102414.72;;;-5.05;100.00
65880;BME280;52661;51.364;6.054;2022-12-18T01:59:00;102418.97;;;-4.87;100.00
65880;BME280;52661;51.364;6.054;2022-12-18T02:01:29;102410.66;;;-4.96;100.00
65880;BME280;52661;51.364;6.054;2022-12-18T02:03:55;102423.88;;;-4.96;100.00
65880;BME280;52661;51.364;6.054;2022-12-18T02:06:35;102417.38;;;-5.05;100.00
65880;BME280;52661;51.364;6.054;2022-12-18T02:09:15;102421.41;;;-5.19;100.00
65880;BME280;52661;51.364;6.054;2022-12-18T02:11:59;102421.78;;;-5.27;100.00
65880;BME280;52661;51.364;6.054;2022-12-18T02:17:11;102417.13;;;-5.20;100.00
65880;BME280;52661;51.364;6.054;2022-12-18T02:20:17;102421.41;;;-5.36;100.00
65880;BME280;52661;51.364;6.054;2022-12-18T02:28:42;102412.81;;;-5.60;100.00
65880;BME280;52661;51.364;6.054;2022-12-18T02:31:11;102418.47;;;-5.68;100.00
65880;BME280;52661;51.364;6.054;2022-12-18T02:33:39;102415.44;;;-5.76;100.00
65880;BME280;52661;51.364;6.054;2022-12-18T02:36:05;102417.38;;;-5.55;100.00
65880;BME280;52661;51.364;6.054;2022-12-18T02:38:33;102419.63;;;-5.30;100.00
65880;BME280;52661;51.364;6.054;2022-12-18T02:41:00;102405.06;;;-5.33;100.00
65880;BME280;52661;51.364;6.054;2022-12-18T02:43:25;102408.81;;;-5.29;100.00
65880;BME280;52661;51.364;6.054;2022-12-18T02:45:57;102417.09;;;-5.25;100.00
65880;BME280;52661;51.364;6.054;2022-12-18T02:48:30;102420.38;;;-5.18;100.00
65880;BME280;52661;51.364;6.054;2022-12-18T02:53:25;102400.63;;;-5.61;100.00
65880;BME280;52661;51.364;6.054;2022-12-18T02:56:09;102395.47;;;-5.67;100.00
65880;BME280;52661;51.364;6.054;2022-12-18T02:59:02;102392.78;;;-5.72;100.00
65880;BME280;52661;51.364;6.054;2022-12-18T03:01:45;102394.13;;;-5.70;100.00
65880;BME280;52661;51.364;6.054;2022-12-18T03:04:48;102406.81;;;-5.55;100.00
65880;BME280;52661;51.364;6.054;2022-12-18T03:07:19;102395.75;;;-5.52;100.00
65880;BME280;52661;51.364;6.054;2022-12-18T03:09:50;102391.16;;;-5.57;100.00
65880;BME280;52661;51.364;6.054;2022-12-18T03:12:18;102380.75;;;-5.63;100.00
65880;BME280;52661;51.364;6.054;2022-12-18T03:15:10;102381.88;;;-5.76;100.00
65880;BME280;52661;51.364;6.054;2022-12-18T03:17:40;102388.34;;;-5.67;100.00
65880;BME280;52661;51.364;6.054;2022-12-18T03:20:12;102381.06;;;-5.60;100.00
65880;BME280;52661;51.364;6.054;2022-12-18T03:22:42;102378.75;;;-5.56;100.00
65880;BME280;52661;51.364;6.054;2022-12-18T03:25:11;102379.56;;;-5.39;100.00
65880;BME280;52661;51.364;6.054;2022-12-18T03:27:42;102386.06;;;-5.47;100.00
65880;BME280;52661;51.364;6.054;2022-12-18T03:30:11;102381.06;;;-5.76;100.00
65880;BME280;52661;51.364;6.054;2022-12-18T03:33:02;102376.66;;;-5.71;100.00
65880;BME280;52661;51.364;6.054;2022-12-18T03:35:34;102379.53;;;-5.72;100.00
65880;BME280;52661;51.364;6.054;2022-12-18T03:38:01;102378.16;;;-5.75;100.00
65880;BME280;52661;51.364;6.054;2022-12-18T03:40:31;102380.34;;;-5.72;100.00
65880;BME280;52661;51.364;6.054;2022-12-18T03:43:10;102381.28;;;-5.78;100.00
65880;BME280;52661;51.364;6.054;2022-12-18T03:45:41;102376.00;;;-5.78;100.00
65880;BME280;52661;51.364;6.054;2022-12-18T03:48:16;102379.13;;;-5.64;100.00
65880;BME280;52661;51.364;6.054;2022-12-18T03:51:06;102361.25;;;-5.74;100.00
65880;BME280;52661;51.364;6.054;2022-12-18T03:53:41;102365.25;;;-5.71;100.00
65880;BME280;52661;51.364;6.054;2022-12-18T03:56:09;102363.19;;;-5.69;100.00
65880;BME280;52661;51.364;6.054;2022-12-18T03:58:36;102364.06;;;-5.64;100.00
65880;BME280;52661;51.364;6.054;2022-12-18T04:01:05;102360.63;;;-5.64;100.00
65880;BME280;52661;51.364;6.054;2022-12-18T04:03:33;102363.50;;;-5.66;100.00
65880;BME280;52661;51.364;6.054;2022-12-18T04:06:01;102361.03;;;-5.72;100.00
65880;BME280;52661;51.364;6.054;2022-12-18T04:08:27;102353.91;;;-5.72;100.00
65880;BME280;52661;51.364;6.054;2022-12-18T04:10:53;102357.25;;;-5.76;100.00
65880;BME280;52661;51.364;6.054;2022-12-18T04:13:28;102345.78;;;-5.82;100.00
65880;BME280;52661;51.364;6.054;2022-12-18T04:15:54;102350.13;;;-5.76;100.00
65880;BME280;52661;51.364;6.054;2022-12-18T04:18:19;102359.03;;;-5.65;100.00
65880;BME280;52661;51.364;6.054;2022-12-18T04:20:45;102350.34;;;-5.77;100.00
65880;BME280;52661;51.364;6.054;2022-12-18T04:23:11;102358.56;;;-5.79;100.00
65880;BME280;52661;51.364;6.054;2022-12-18T04:25:36;102349.56;;;-5.78;100.00
65880;BME280;52661;51.364;6.054;2022-12-18T04:28:02;102360.28;;;-5.84;100.00
65880;BME280;52661;51.364;6.054;2022-12-18T04:30:27;102339.94;;;-5.84;100.00
65880;BME280;52661;51.364;6.054;2022-12-18T04:32:52;102337.31;;;-5.84;100.00
65880;BME280;52661;51.364;6.054;2022-12-18T04:35:18;102325.13;;;-5.85;100.00
65880;BME280;52661;51.364;6.054;2022-12-18T04:37:43;102327.84;;;-5.80;100.00
65880;BME280;52661;51.364;6.054;2022-12-18T04:40:09;102318.94;;;-5.74;100.00
65880;BME280;52661;51.364;6.054;2022-12-18T04:42:34;102325.19;;;-5.63;100.00
65880;BME280;52661;51.364;6.054;2022-12-18T04:45:00;102320.72;;;-5.63;100.00
65880;BME280;52661;51.364;6.054;2022-12-18T04:47:25;102312.69;;;-5.68;100.00
65880;BME280;52661;51.364;6.054;2022-12-18T04:49:50;102310.38;;;-5.64;100.00
65880;BME280;52661;51.364;6.054;2022-12-18T04:52:16;102301.34;;;-5.68;100.00
65880;BME280;52661;51.364;6.054;2022-12-18T04:54:41;102307.16;;;-5.66;100.00
65880;BME280;52661;51.364;6.054;2022-12-18T04:57:07;102307.16;;;-5.66;100.00
65880;BME280;52661;51.364;6.054;2022-12-18T04:59:32;102312.28;;;-5.60;100.00
65880;BME280;52661;51.364;6.054;2022-12-18T05:01:57;102327.13;;;-5.59;100.00
65880;BME280;52661;51.364;6.054;2022-12-18T05:04:22;102328.25;;;-5.55;100.00
65880;BME280;52661;51.364;6.054;2022-12-18T05:06:48;102327.75;;;-5.52;100.00
65880;BME280;52661;51.364;6.054;2022-12-18T05:09:13;102327.75;;;-5.52;100.00
65880;BME280;52661;51.364;6.054;2022-12-18T05:11:39;102333.53;;;-5.55;100.00
65880;BME280;52661;51.364;6.054;2022-12-18T05:14:04;102343.41;;;-5.50;100.00
65880;BME280;52661;51.364;6.054;2022-12-18T05:16:29;102346.28;;;-5.52;100.00
65880;BME280;52661;51.364;6.054;2022-12-18T05:18:55;102350.09;;;-5.42;100.00
65880;BME280;52661;51.364;6.054;2022-12-18T05:21:20;102364.06;;;-5.30;100.00
65880;BME280;52661;51.364;6.054;2022-12-18T05:23:45;102371.91;;;-5.19;100.00
65880;BME280;52661;51.364;6.054;2022-12-18T05:26:15;102377.63;;;-5.10;100.00
65880;BME280;52661;51.364;6.054;2022-12-18T05:28:41;102378.66;;;-5.11;100.00
65880;BME280;52661;51.364;6.054;2022-12-18T05:31:06;102376.53;;;-5.09;100.00
65880;BME280;52661;51.364;6.054;2022-12-18T05:33:33;102382.91;;;-5.10;100.00
65880;BME280;52661;51.364;6.054;2022-12-18T05:36:02;102379.47;;;-5.11;100.00
65880;BME280;52661;51.364;6.054;2022-12-18T05:38:29;102377.38;;;-5.25;100.00
65880;BME280;52661;51.364;6.054;2022-12-18T05:40:55;102372.72;;;-5.35;100.00
65880;BME280;52661;51.364;6.054;2022-12-18T05:43:21;102373.38;;;-5.44;100.00
65880;BME280;52661;51.364;6.054;2022-12-18T05:45:47;102364.09;;;-5.47;100.00
65880;BME280;52661;51.364;6.054;2022-12-18T05:48:13;102365.34;;;-5.50;100.00
65880;BME280;52661;51.364;6.054;2022-12-18T05:50:40;102366.41;;;-5.51;100.00
65880;BME280;52661;51.364;6.054;2022-12-18T05:53:06;102344.44;;;-5.51;100.00
65880;BME280;52661;51.364;6.054;2022-12-18T05:55:35;102353.66;;;-5.54;100.00
65880;BME280;52661;51.364;6.054;2022-12-18T05:58:02;102347.09;;;-5.51;100.00
65880;BME280;52661;51.364;6.054;2022-12-18T06:00:29;102344.28;;;-5.44;100.00
65880;BME280;52661;51.364;6.054;2022-12-18T06:02:54;102344.28;;;-5.44;100.00
65880;BME280;52661;51.364;6.054;2022-12-18T06:05:20;102342.44;;;-5.44;100.00
65880;BME280;52661;51.364;6.054;2022-12-18T06:07:45;102342.44;;;-5.44;100.00
65880;BME280;52661;51.364;6.054;2022-12-18T06:10:11;102344.09;;;-5.38;100.00
65880;BME280;52661;51.364;6.054;2022-12-18T06:12:36;102344.41;;;-5.34;100.00
65880;BME280;52661;51.364;6.054;2022-12-18T06:15:02;102329.34;;;-5.34;100.00
65880;BME280;52661;51.364;6.054;2022-12-18T06:17:29;102327.50;;;-5.33;100.00
65880;BME280;52661;51.364;6.054;2022-12-18T06:19:54;102329.13;;;-5.32;100.00
65880;BME280;52661;51.364;6.054;2022-12-18T06:22:20;102329.16;;;-5.27;100.00
65880;BME280;52661;51.364;6.054;2022-12-18T06:24:45;102331.81;;;-5.27;100.00
65880;BME280;52661;51.364;6.054;2022-12-18T06:27:11;102324.69;;;-5.27;100.00
65880;BME280;52661;51.364;6.054;2022-12-18T06:29:36;102320.34;;;-5.16;100.00
65880;BME280;52661;51.364;6.054;2022-12-18T06:32:02;102334.94;;;-5.14;100.00
65880;BME280;52661;51.364;6.054;2022-12-18T06:34:27;102325.72;;;-5.11;100.00
65880;BME280;52661;51.364;6.054;2022-12-18T06:36:52;102318.56;;;-5.11;100.00
65880;BME280;52661;51.364;6.054;2022-12-18T06:39:18;102316.72;;;-5.10;100.00
65880;BME280;52661;51.364;6.054;2022-12-18T06:41:43;102317.47;;;-5.15;100.00
65880;BME280;52661;51.364;6.054;2022-12-18T06:44:08;102307.34;;;-5.18;100.00
65880;BME280;52661;51.364;6.054;2022-12-18T06:46:34;102321.75;;;-5.09;100.00
65880;BME280;52661;51.364;6.054;2022-12-18T06:48:59;102324.00;;;-5.01;100.00
65880;BME280;52661;51.364;6.054;2022-12-18T06:51:24;102322.19;;;-4.95;100.00
65880;BME280;52661;51.364;6.054;2022-12-18T06:53:50;102327.75;;;-4.97;100.00
65880;BME280;52661;51.364;6.054;2022-12-18T06:56:15;102330.41;;;-4.97;100.00
65880;BME280;52661;51.364;6.054;2022-12-18T06:58:41;102330.41;;;-4.97;100.00
65880;BME280;52661;51.364;6.054;2022-12-18T07:01:09;102319.75;;;-5.02;100.00
65880;BME280;52661;51.364;6.054;2022-12-18T07:03:36;102312.09;;;-4.98;100.00
65880;BME280;52661;51.364;6.054;2022-12-18T07:06:01;102304.25;;;-4.93;100.00
65880;BME280;52661;51.364;6.054;2022-12-18T07:08:28;102317.91;;;-5.01;100.00
65880;BME280;52661;51.364;6.054;2022-12-18T07:10:54;102313.28;;;-5.11;100.00
65880;BME280;52661;51.364;6.054;2022-12-18T07:13:19;102314.38;;;-5.07;100.00
65880;BME280;52661;51.364;6.054;2022-12-18T07:15:44;102310.44;;;-5.04;100.00
65880;BME280;52661;51.364;6.054;2022-12-18T07:18:10;102313.28;;;-5.11;100.00
65880;BME280;52661;51.364;6.054;2022-12-18T07:20:35;102315.16;;;-5.06;100.00
65880;BME280;52661;51.364;6.054;2022-12-18T07:23:04;102306.69;;;-5.08;100.00
65880;BME280;52661;51.364;6.054;2022-12-18T07:25:33;102303.81;;;-5.07;100.00
65880;BME280;52661;51.364;6.054;2022-12-18T07:27:59;102302.50;;;-5.04;100.00
65880;BME280;52661;51.364;6.054;2022-12-18T07:30:24;102297.72;;;-5.07;100.00
65880;BME280;52661;51.364;6.054;2022-12-18T07:32:50;102302.19;;;-5.08;100.00
65880;BME280;52661;51.364;6.054;2022-12-18T07:35:15;102296.91;;;-5.08;100.00
65880;BME280;52661;51.364;6.054;2022-12-18T07:37:40;102294.97;;;-5.12;100.00
65880;BME280;52661;51.364;6.054;2022-12-18T07:40:06;102290.72;;;-5.13;100.00
65880;BME280;52661;51.364;6.054;2022-12-18T07:42:32;102289.69;;;-5.12;100.00
65880;BME280;52661;51.364;6.054;2022-12-18T07:44:58;102283.41;;;-5.06;100.00
65880;BME280;52661;51.364;6.054;2022-12-18T07:47:24;102278.88;;;-5.11;100.00
65880;BME280;52661;51.364;6.054;2022-12-18T07:49:49;102272.16;;;-5.18;100.00
65880;BME280;52661;51.364;6.054;2022-12-18T07:52:15;102270.84;;;-5.16;100.00
65880;BME280;52661;51.364;6.054;2022-12-18T07:54:40;102261.28;;;-5.17;100.00
65880;BME280;52661;51.364;6.054;2022-12-18T07:57:07;102259.47;;;-5.16;100.00
65880;BME280;52661;51.364;6.054;2022-12-18T07:59:32;102259.22;;;-5.15;100.00
65880;BME280;52661;51.364;6.054;2022-12-18T08:01:57;102248.06;;;-5.17;100.00
65880;BME280;52661;51.364;6.054;2022-12-18T08:04:24;102247.63;;;-5.09;100.00
65880;BME280;52661;51.364;6.054;2022-12-18T08:06:49;102239.47;;;-5.07;100.00
65880;BME280;52661;51.364;6.054;2022-12-18T08:09:14;102239.19;;;-5.06;100.00
65880;BME280;52661;51.364;6.054;2022-12-18T08:11:40;102234.47;;;-5.04;100.00
65880;BME280;52661;51.364;6.054;2022-12-18T08:14:05;102232.69;;;-4.98;100.00
65880;BME280;52661;51.364;6.054;2022-12-18T08:16:30;102230.34;;;-4.94;100.00
65880;BME280;52661;51.364;6.054;2022-12-18T08:18:56;102223.25;;;-4.89;100.00
65880;BME280;52661;51.364;6.054;2022-12-18T08:21:24;102224.38;;;-4.85;100.00
65880;BME280;52661;51.364;6.054;2022-12-18T08:23:50;102226.50;;;-4.82;100.00
65880;BME280;52661;51.364;6.054;2022-12-18T08:26:16;102232.66;;;-4.76;100.00
65880;BME280;52661;51.364;6.054;2022-12-18T08:28:42;102244.13;;;-4.71;100.00
65880;BME280;52661;51.364;6.054;2022-12-18T08:31:08;102241.19;;;-4.69;100.00
65880;BME280;52661;51.364;6.054;2022-12-18T08:33:34;102236.22;;;-4.66;100.00
65880;BME280;52661;51.364;6.054;2022-12-18T08:36:01;102240.22;;;-4.63;100.00
65880;BME280;52661;51.364;6.054;2022-12-18T08:38:26;102242.91;;;-4.58;100.00
65880;BME280;52661;51.364;6.054;2022-12-18T08:40:59;102232.38;;;-4.53;100.00
65880;BME280;52661;51.364;6.054;2022-12-18T08:43:25;102235.06;;;-4.48;100.00
65880;BME280;52661;51.364;6.054;2022-12-18T08:46:09;102239.31;;;-4.47;100.00
65880;BME280;52661;51.364;6.054;2022-12-18T08:48:34;102238.28;;;-4.41;100.00
65880;BME280;52661;51.364;6.054;2022-12-18T08:51:00;102257.72;;;-4.35;100.00
65880;BME280;52661;51.364;6.054;2022-12-18T08:53:26;102258.25;;;-4.33;100.00
65880;BME280;52661;51.364;6.054;2022-12-18T08:55:52;102258.06;;;-4.27;100.00
65880;BME280;52661;51.364;6.054;2022-12-18T08:58:18;102260.72;;;-4.27;100.00
65880;BME280;52661;51.364;6.054;2022-12-18T09:00:43;102246.41;;;-4.26;100.00
65880;BME280;52661;51.364;6.054;2022-12-18T09:03:16;102229.69;;;-4.26;100.00
65880;BME280;52661;51.364;6.054;2022-12-18T09:05:41;102232.16;;;-4.20;100.00
65880;BME280;52661;51.364;6.054;2022-12-18T09:08:07;102226.06;;;-4.15;100.00
65880;BME280;52661;51.364;6.054;2022-12-18T09:10:32;102225.06;;;-4.09;100.00
65880;BME280;52661;51.364;6.054;2022-12-18T09:12:58;102218.47;;;-4.07;100.00
65880;BME280;52661;51.364;6.054;2022-12-18T09:15:24;102212.69;;;-3.99;100.00
65880;BME280;52661;51.364;6.054;2022-12-18T09:17:49;102202.38;;;-3.95;100.00
65880;BME280;52661;51.364;6.054;2022-12-18T09:20:15;102206.91;;;-3.90;100.00
65880;BME280;52661;51.364;6.054;2022-12-18T09:22:41;102213.28;;;-3.86;100.00
65880;BME280;52661;51.364;6.054;2022-12-18T09:25:07;102213.09;;;-3.80;100.00
65880;BME280;52661;51.364;6.054;2022-12-18T09:27:35;102209.66;;;-3.75;100.00
65880;BME280;52661;51.364;6.054;2022-12-18T09:30:00;102203.59;;;-3.71;100.00
65880;BME280;52661;51.364;6.054;2022-12-18T09:32:26;102208.13;;;-3.66;100.00
65880;BME280;52661;51.364;6.054;2022-12-18T09:34:51;102214.75;;;-3.64;100.00
65880;BME280;52661;51.364;6.054;2022-12-18T09:37:17;102216.38;;;-3.58;100.00
65880;BME280;52661;51.364;6.054;2022-12-18T09:39:42;102207.66;;;-3.58;100.00
65880;BME280;52661;51.364;6.054;2022-12-18T09:42:26;102216.41;;;-3.53;100.00
65880;BME280;52661;51.364;6.054;2022-12-18T09:44:54;102216.94;;;-3.51;100.00
65880;BME280;52661;51.364;6.054;2022-12-18T09:47:22;102207.41;;;-3.47;100.00
65880;BME280;52661;51.364;6.054;2022-12-18T09:49:52;102208.25;;;-3.41;100.00
65880;BME280;52661;51.364;6.054;2022-12-18T09:52:43;102210.16;;;-3.36;100.00
65880;BME280;52661;51.364;6.054;2022-12-18T09:55:31;102213.34;;;-3.34;100.00
65880;BME280;52661;51.364;6.054;2022-12-18T09:58:07;102213.38;;;-3.29;100.00
65880;BME280;52661;51.364;6.054;2022-12-18T10:00:38;102217.06;;;-3.25;100.00
65880;BME280;52661;51.364;6.054;2022-12-18T10:03:10;102205.97;;;-3.22;100.00
65880;BME280;52661;51.364;6.054;2022-12-18T10:06:02;102213.69;;;-3.16;100.00
65880;BME280;52661;51.364;6.054;2022-12-18T10:15:30;102191.13;;;-3.03;100.00
65880;BME280;52661;51.364;6.054;2022-12-18T10:20:13;102195.94;;;-2.95;100.00
65880;BME280;52661;51.364;6.054;2022-12-18T10:27:40;102181.63;;;-2.84;100.00
65880;BME280;52661;51.364;6.054;2022-12-18T10:30:14;102178.72;;;-2.77;100.00
65880;BME280;52661;51.364;6.054;2022-12-18T10:32:40;102185.88;;;-2.78;100.00
65880;BME280;52661;51.364;6.054;2022-12-18T10:35:23;102188.56;;;-2.73;100.00
65880;BME280;52661;51.364;6.054;2022-12-18T10:40:29;102176.34;;;-2.64;100.00
65880;BME280;52661;51.364;6.054;2022-12-18T10:43:11;102177.16;;;-2.58;100.00
65880;BME280;52661;51.364;6.054;2022-12-18T10:45:37;102175.56;;;-2.54;100.00
65880;BME280;52661;51.364;6.054;2022-12-18T10:48:03;102176.91;;;-2.52;100.00
65880;BME280;52661;51.364;6.054;2022-12-18T10:50:34;102171.59;;;-2.46;100.00
65880;BME280;52661;51.364;6.054;2022-12-18T10:53:03;102161.75;;;-2.46;100.00
65880;BME280;52661;51.364;6.054;2022-12-18T10:55:37;102154.31;;;-2.39;100.00
65880;BME280;52661;51.364;6.054;2022-12-18T10:58:25;102156.44;;;-2.36;100.00
65880;BME280;52661;51.364;6.054;2022-12-18T11:06:23;102136.75;;;-2.35;100.00
65880;BME280;52661;51.364;6.054;2022-12-18T11:09:19;102134.88;;;-2.29;100.00
65880;BME280;52661;51.364;6.054;2022-12-18T11:11:59;102132.22;;;-2.29;100.00
65880;BME280;52661;51.364;6.054;2022-12-18T11:14:31;102116.53;;;-2.31;100.00
65880;BME280;52661;51.364;6.054;2022-12-18T11:16:58;102106.16;;;-2.27;100.00
65880;BME280;52661;51.364;6.054;2022-12-18T11:19:52;102104.59;;;-2.28;100.00
65880;BME280;52661;51.364;6.054;2022-12-18T11:22:30;102094.47;;;-2.26;100.00
65880;BME280;52661;51.364;6.054;2022-12-18T11:24:59;102093.13;;;-2.24;100.00
65880;BME280;52661;51.364;6.054;2022-12-18T11:27:25;102103.75;;;-2.24;100.00
65880;BME280;52661;51.364;6.054;2022-12-18T11:29:51;102100.59;;;-2.21;100.00
65880;BME280;52661;51.364;6.054;2022-12-18T11:32:37;102097.63;;;-2.19;100.00
65880;BME280;52661;51.364;6.054;2022-12-18T11:35:18;102091.53;;;-2.15;100.00
65880;BME280;52661;51.364;6.054;2022-12-18T11:37:49;102082.19;;;-2.12;100.00
65880;BME280;52661;51.364;6.054;2022-12-18T11:40:28;102077.41;;;-2.10;100.00
65880;BME280;52661;51.364;6.054;2022-12-18T11:42:59;102075.28;;;-2.08;100.00
65880;BME280;52661;51.364;6.054;2022-12-18T11:45:31;102080.03;;;-2.00;100.00
65880;BME280;52661;51.364;6.054;2022-12-18T11:48:15;102082.44;;;-2.04;100.00
65880;BME280;52661;51.364;6.054;2022-12-18T11:50:59;102080.84;;;-2.00;100.00
65880;BME280;52661;51.364;6.054;2022-12-18T11:53:27;102088.00;;;-1.95;99.39
65880;BME280;52661;51.364;6.054;2022-12-18T11:56:14;102086.91;;;-1.84;100.00
65880;BME280;52661;51.364;6.054;2022-12-18T12:12:15;102070.13;;;-1.84;100.00
65880;BME280;52661;51.364;6.054;2022-12-18T12:15:34;102060.84;;;-1.87;100.00
65880;BME280;52661;51.364;6.054;2022-12-18T12:21:06;102057.06;;;-1.76;100.00
65880;BME280;52661;51.364;6.054;2022-12-18T12:23:52;102053.34;;;-1.75;99.70
65880;BME280;52661;51.364;6.054;2022-12-18T12:26:30;102046.66;;;-1.72;100.00
65880;BME280;52661;51.364;6.054;2022-12-18T12:29:30;102039.22;;;-1.70;99.79
65880;BME280;52661;51.364;6.054;2022-12-18T12:35:02;102033.06;;;-1.66;99.79
65880;BME280;52661;51.364;6.054;2022-12-18T12:40:18;102033.03;;;-1.61;99.68
65880;BME280;52661;51.364;6.054;2022-12-18T12:43:00;102026.91;;;-1.56;99.72
65880;BME280;52661;51.364;6.054;2022-12-18T12:45:47;102029.56;;;-1.56;99.73
65880;BME280;52661;51.364;6.054;2022-12-18T12:50:52;102014.91;;;-1.54;100.00
65880;BME280;52661;51.364;6.054;2022-12-18T12:53:26;102010.38;;;-1.53;100.00
65880;BME280;52661;51.364;6.054;2022-12-18T12:55:54;102004.22;;;-1.48;100.00
65880;BME280;52661;51.364;6.054;2022-12-18T13:06:16;101998.06;;;-1.44;99.63
65880;BME280;52661;51.364;6.054;2022-12-18T13:08:58;101992.47;;;-1.42;98.69
65880;BME280;52661;51.364;6.054;2022-12-18T13:11:50;101987.88;;;-1.37;99.03
65880;BME280;52661;51.364;6.054;2022-12-18T13:14:36;101987.88;;;-1.37;98.79
65880;BME280;52661;51.364;6.054;2022-12-18T13:20:04;101974.53;;;-1.32;98.07
65880;BME280;52661;51.364;6.054;2022-12-18T13:22:40;101974.53;;;-1.27;97.53
65880;BME280;52661;51.364;6.054;2022-12-18T13:25:36;101952.00;;;-0.82;99.78
65880;BME280;52661;51.364;6.054;2022-12-18T13:38:33;101943.06;;;-1.25;95.65
65880;BME280;52661;51.364;6.054;2022-12-18T13:46:28;101941.69;;;-1.22;96.89
65880;BME280;52661;51.364;6.054;2022-12-18T13:49:02;101943.63;;;-1.28;97.05
65880;BME280;52661;51.364;6.054;2022-12-18T13:51:28;101941.19;;;-1.24;96.39
